createdAt,value
2022-08-25T00:04:18.406Z,11.05
2022-08-25T00:09:23.538Z,10.77
2022-08-25T00:14:29.501Z,11.63
2022-08-25T00:19:34.976Z,10.60
2022-08-25T00:24:36.912Z,10.95
2022-08-25T00:29:39.187Z,11.63
2022-08-25T00:34:41.070Z,11.65
2022-08-25T00:39:42.959Z,11.43
2022-08-25T00:51:47.571Z,12.45
2022-08-25T00:56:51.454Z,11.13
2022-08-25T01:01:54.936Z,12.65
2022-08-25T01:06:58.444Z,11.20
2022-08-25T01:12:01.266Z,11.00
2022-08-25T01:17:03.829Z,11.55
2022-08-25T01:22:05.958Z,11.07
2022-08-25T01:27:08.288Z,10.70
2022-08-25T01:32:13.472Z,11.63
2022-08-25T01:37:16.749Z,10.15
2022-08-25T01:42:47.208Z,11.75
2022-08-25T01:47:49.103Z,10.53
2022-08-25T01:53:15.507Z,12.02
2022-08-25T01:58:25.246Z,10.65
2022-08-25T02:03:28.205Z,11.73
2022-08-25T02:08:30.146Z,10.73
2022-08-25T02:13:32.781Z,11.07
2022-08-25T02:18:35.254Z,11.52
2022-08-25T02:23:37.507Z,12.32
2022-08-25T02:28:40.127Z,12.25
2022-08-25T02:33:42.396Z,12.80
2022-08-25T02:38:44.838Z,14.57
2022-08-25T02:43:48.680Z,13.02
2022-08-25T02:48:52.997Z,12.45
2022-08-25T02:53:54.881Z,12.40
2022-08-25T02:58:57.351Z,12.73
2022-08-25T03:04:01.879Z,13.27
2022-08-25T03:09:04.546Z,14.55
2022-08-25T03:14:07.918Z,12.95
2022-08-25T03:19:10.120Z,15.32
2022-08-25T03:24:12.174Z,15.02
2022-08-25T03:29:14.468Z,16.30
2022-08-25T03:34:18.219Z,17.30
2022-08-25T03:39:23.056Z,16.92
2022-08-25T03:44:25.185Z,18.98
2022-08-25T03:49:27.080Z,17.80
2022-08-25T03:54:29.698Z,15.68
2022-08-25T03:59:31.562Z,17.13
2022-08-25T04:04:33.628Z,15.52
2022-08-25T04:09:36.971Z,14.43
2022-08-25T04:14:38.939Z,15.45
2022-08-25T04:19:40.986Z,16.17
2022-08-25T04:24:42.871Z,14.27
2022-08-25T04:29:45.031Z,14.82
2022-08-25T04:34:46.920Z,14.20
2022-08-25T04:39:48.859Z,15.48
2022-08-25T04:44:50.920Z,15.30
2022-08-25T04:49:53.265Z,14.90
2022-08-25T04:54:55.516Z,15.93
2022-08-25T04:59:57.517Z,15.43
2022-08-25T05:04:59.526Z,15.18
2022-08-25T05:10:01.451Z,14.32
2022-08-25T05:15:23.992Z,15.40
2022-08-25T05:20:26.726Z,15.07
2022-08-25T05:25:28.646Z,17.75
2022-08-25T05:30:30.620Z,18.15
2022-08-25T05:35:32.784Z,18.85
2022-08-25T05:40:34.733Z,20.00
2022-08-25T05:45:38.162Z,20.00
2022-08-25T05:50:40.138Z,20.25
2022-08-25T05:55:45.139Z,19.55
2022-08-25T06:00:47.176Z,20.10
2022-08-25T06:05:49.855Z,20.05
2022-08-25T06:10:54.868Z,19.20
2022-08-25T06:16:00.712Z,19.98
2022-08-25T06:21:13.379Z,18.25
2022-08-25T06:26:21.126Z,18.42
2022-08-25T06:31:23.648Z,18.75
2022-08-25T06:36:25.565Z,17.85
2022-08-25T06:41:36.642Z,17.48
2022-08-25T06:46:39.422Z,16.42
2022-08-25T06:51:42.413Z,16.92
2022-08-25T06:56:44.337Z,16.75
2022-08-25T07:01:46.362Z,17.38
2022-08-25T07:06:51.705Z,14.35
2022-08-25T07:11:54.318Z,16.65
2022-08-25T07:16:56.266Z,15.32
2022-08-25T07:21:58.231Z,16.33
2022-08-25T07:27:00.318Z,16.85
2022-08-25T07:32:02.678Z,15.23
2022-08-25T07:37:05.284Z,16.73
2022-08-25T07:42:12.102Z,16.55
2022-08-25T07:47:16.081Z,17.15
2022-08-25T07:52:17.980Z,15.90
2022-08-25T07:57:22.258Z,15.60
2022-08-25T08:02:24.757Z,13.95
2022-08-25T08:07:43.295Z,14.98
2022-08-25T08:12:46.168Z,15.63
2022-08-25T08:17:48.065Z,13.93
2022-08-25T08:22:50.165Z,14.23
2022-08-25T08:27:54.880Z,14.00
2022-08-25T08:33:11.223Z,12.52
2022-08-25T08:38:20.813Z,13.65
2022-08-25T08:43:25.089Z,13.77
2022-08-25T08:48:38.854Z,13.18
2022-08-25T08:53:43.898Z,12.95
2022-08-25T08:59:09.709Z,13.15
2022-08-25T09:04:26.516Z,12.65
2022-08-25T09:09:35.957Z,11.80
2022-08-25T09:14:53.614Z,13.60
2022-08-25T09:20:25.041Z,11.35
2022-08-25T09:25:58.362Z,11.13
2022-08-25T09:31:28.824Z,14.80
2022-08-25T09:36:37.492Z,10.95
2022-08-25T09:41:51.338Z,10.02
2022-08-25T09:47:02.409Z,10.88
2022-08-25T09:52:41.417Z,9.63
2022-08-25T09:57:43.600Z,8.00
2022-08-25T10:03:07.092Z,8.48
2022-08-25T10:08:24.962Z,8.30
2022-08-25T10:13:42.216Z,8.73
2022-08-25T10:18:44.159Z,9.27
2022-08-25T10:23:52.637Z,9.18
2022-08-25T10:29:06.697Z,9.35
2022-08-25T10:34:44.413Z,7.53
2022-08-25T10:39:55.879Z,7.55
2022-08-25T10:45:30.031Z,7.20
2022-08-25T10:50:49.031Z,6.75
2022-08-25T10:56:23.191Z,6.30
2022-08-25T11:01:42.964Z,6.35
2022-08-25T11:07:07.905Z,5.32
2022-08-25T11:12:27.004Z,6.22
2022-08-25T11:17:39.844Z,6.30
2022-08-25T11:23:07.029Z,5.57
2022-08-25T11:28:19.007Z,5.93
2022-08-25T11:33:24.864Z,6.00
2022-08-25T11:39:15.809Z,5.68
2022-08-25T11:44:26.828Z,5.43
2022-08-25T11:49:39.914Z,5.72
2022-08-25T11:54:45.793Z,6.13
2022-08-25T11:59:50.811Z,5.85
2022-08-25T12:04:55.483Z,5.78
2022-08-25T12:10:03.485Z,5.93
2022-08-25T12:15:23.756Z,5.82
2022-08-25T12:20:55.035Z,6.22
2022-08-25T12:26:01.393Z,6.13
2022-08-25T12:31:31.759Z,4.97
2022-08-25T12:36:34.918Z,5.68
2022-08-25T12:41:57.203Z,6.05
2022-08-25T12:47:27.308Z,5.43
2022-08-25T12:52:31.084Z,6.07
2022-08-25T12:57:57.770Z,5.18
2022-08-25T13:03:27.748Z,5.72
2022-08-25T13:09:08.248Z,6.37
2022-08-25T13:14:10.436Z,5.68
2022-08-25T13:19:19.902Z,5.40
2022-08-25T13:24:27.103Z,5.47
2022-08-25T13:29:36.418Z,5.47
2022-08-25T13:34:44.038Z,5.95
2022-08-25T13:39:56.350Z,4.85
2022-08-25T13:44:58.763Z,4.68
2022-08-25T13:50:20.567Z,5.45
2022-08-25T13:55:50.698Z,5.43
2022-08-25T14:01:49.391Z,5.30
2022-08-25T14:07:13.231Z,5.25
2022-08-25T14:12:31.111Z,5.25
2022-08-25T14:17:40.097Z,4.78
2022-08-25T14:22:42.526Z,5.00
2022-08-25T14:28:06.811Z,5.28
2022-08-25T14:33:08.941Z,4.78
2022-08-25T14:38:12.045Z,5.47
2022-08-25T14:43:15.814Z,6.03
2022-08-25T14:48:49.021Z,6.43
2022-08-25T14:53:56.920Z,5.30
2022-08-25T14:59:01.544Z,5.70
2022-08-25T15:04:10.215Z,5.20
2022-08-25T15:09:17.186Z,5.32
2022-08-25T15:14:28.420Z,5.07
2022-08-25T15:19:35.405Z,4.85
2022-08-25T15:24:37.898Z,5.18
2022-08-25T15:29:41.898Z,5.97
2022-08-25T15:34:44.022Z,5.43
2022-08-25T15:39:47.805Z,4.45
2022-08-25T15:44:53.051Z,5.88
2022-08-25T15:50:07.064Z,5.97
2022-08-25T15:55:10.660Z,5.55
2022-08-25T16:00:19.329Z,5.25
2022-08-25T16:05:26.120Z,6.50
2022-08-25T16:10:33.340Z,4.97
2022-08-25T16:15:39.412Z,6.73
2022-08-25T16:20:47.820Z,5.80
2022-08-25T16:25:49.905Z,5.85
2022-08-25T16:30:54.456Z,5.95
2022-08-25T16:36:07.164Z,5.78
2022-08-25T16:41:11.535Z,5.95
2022-08-25T16:46:16.370Z,7.53
2022-08-25T16:51:22.639Z,6.22
2022-08-25T16:56:28.966Z,6.55
2022-08-25T17:01:34.370Z,6.75
2022-08-25T17:06:39.838Z,6.38
2022-08-25T17:11:48.960Z,6.78
2022-08-25T17:16:54.879Z,7.35
2022-08-25T17:21:58.914Z,7.53
2022-08-25T17:27:02.222Z,7.43
2022-08-25T17:32:05.358Z,7.18
2022-08-25T17:37:08.192Z,7.15
2022-08-25T17:42:10.510Z,7.18
2022-08-25T17:47:12.716Z,7.47
2022-08-25T17:52:17.269Z,6.78
2022-08-25T17:57:19.672Z,8.70
2022-08-25T18:02:21.535Z,7.95
2022-08-25T18:07:24.128Z,7.68
2022-08-25T18:12:27.500Z,7.10
2022-08-25T18:17:29.616Z,8.00
2022-08-25T18:22:32.643Z,7.47
2022-08-25T18:27:35.848Z,7.93
2022-08-25T18:32:38.444Z,7.65
2022-08-25T18:38:00.162Z,8.98
2022-08-25T18:43:05.801Z,7.55
2022-08-25T18:48:08.901Z,9.70
2022-08-25T18:53:11.751Z,9.15
2022-08-25T18:58:14.703Z,8.98
2022-08-25T19:03:20.007Z,8.23
2022-08-25T19:08:22.153Z,8.57
2022-08-25T19:13:25.601Z,9.02
2022-08-25T19:18:29.175Z,9.93
2022-08-25T19:23:32.992Z,8.52
2022-08-25T19:28:36.628Z,9.32
2022-08-25T19:33:44.858Z,9.90
2022-08-25T19:38:47.709Z,9.95
2022-08-25T19:43:56.126Z,9.98
2022-08-25T19:49:01.504Z,10.43
2022-08-25T19:54:09.152Z,9.60
2022-08-25T19:59:12.405Z,10.43
2022-08-25T20:04:14.581Z,9.48
2022-08-25T20:09:35.633Z,10.25
2022-08-25T20:14:41.192Z,10.00
2022-08-25T20:19:43.395Z,10.20
2022-08-25T20:24:51.119Z,9.65
2022-08-25T20:29:58.425Z,10.18
2022-08-25T20:35:01.874Z,10.45
2022-08-25T20:40:05.139Z,11.05
2022-08-25T20:45:08.421Z,10.98
2022-08-25T20:50:11.563Z,10.65
2022-08-25T20:55:13.980Z,9.55
2022-08-25T21:00:18.047Z,11.60
2022-08-25T21:05:20.407Z,10.80
2022-08-25T21:10:22.569Z,10.98
2022-08-25T21:15:26.290Z,11.15
2022-08-25T21:20:29.510Z,11.38
2022-08-25T21:25:31.381Z,11.52
2022-08-25T21:30:33.542Z,10.93
2022-08-25T21:35:39.976Z,11.18
2022-08-25T21:40:44.833Z,12.00
2022-08-25T21:45:47.259Z,12.35
2022-08-25T21:50:49.201Z,11.88
2022-08-25T21:55:51.124Z,11.10
2022-08-25T22:00:53.052Z,11.57
2022-08-25T22:05:55.397Z,10.90
2022-08-25T22:10:57.434Z,12.02
2022-08-25T22:15:59.638Z,12.45
2022-08-25T22:21:07.220Z,12.05
2022-08-25T22:26:10.937Z,11.75
2022-08-25T22:31:14.436Z,12.52
2022-08-25T22:36:26.593Z,11.63
2022-08-25T22:41:31.654Z,12.68
2022-08-25T22:46:35.027Z,13.35
2022-08-25T22:51:37.900Z,11.98
2022-08-25T22:56:39.895Z,13.48
2022-08-25T23:01:43.841Z,12.18
2022-08-25T23:06:46.485Z,12.40
2022-08-25T23:11:51.244Z,13.23
2022-08-25T23:16:53.577Z,11.82
2022-08-25T23:22:24.837Z,13.27
2022-08-25T23:27:28.970Z,13.60
2022-08-25T23:32:30.900Z,11.57
2022-08-25T23:37:33.736Z,12.00
2022-08-25T23:42:36.333Z,12.63
2022-08-25T23:47:39.304Z,14.10
2022-08-25T23:52:41.319Z,13.85
2022-08-25T23:57:43.245Z,13.75
